Time;durP1;ratioP1;P1;durP2;ratioP2;P2;SDS_P1;SDS_P2;PMS_P1;PMS_P2;Temp;Humidity;BMP_temperature;BMP_pressure;BME280_temperature;BME280_humidity;BME280_pressure;Samples;Min_cycle;Max_cycle;Signal;HPM_P1;HPM_P2
2022/04/25 00:00:01;;;;;;;10.20;6.45;;;;;;;12.05;100.00;99145.47;5092243;28;20107;-63
2022/04/25 00:02:27;;;;;;;15.18;10.85;;;;;;;12.10;100.00;99153.22;5092015;28;20024;-64
2022/04/25 00:04:52;;;;;;;13.13;9.02;;;;;;;12.07;100.00;99154.25;5092367;28;20695;-64
2022/04/25 00:07:18;;;;;;;15.63;12.90;;;;;;;12.03;100.00;99162.47;5092112;28;20028;-64
2022/04/25 00:09:44;;;;;;;31.98;22.98;;;;;;;12.01;100.00;99159.91;5092138;28;20064;-64
2022/04/25 00:12:10;;;;;;;19.98;14.93;;;;;;;12.03;100.00;99166.00;5092058;28;20103;-63
2022/04/25 00:14:36;;;;;;;32.90;28.17;;;;;;;12.03;100.00;99170.47;5091844;28;20035;-63
2022/04/25 00:17:01;;;;;;;57.97;48.13;;;;;;;12.04;100.00;99159.75;5091889;28;20016;-64
2022/04/25 00:19:27;;;;;;;51.38;41.95;;;;;;;12.02;100.00;99164.31;5091803;28;20514;-64
2022/04/25 00:21:52;;;;;;;27.17;22.05;;;;;;;12.02;100.00;99160.75;5089581;28;20104;-64
2022/04/25 00:24:18;;;;;;;21.15;13.98;;;;;;;12.04;100.00;99162.44;5092009;28;20031;-64
2022/04/25 00:26:44;;;;;;;21.02;11.63;;;;;;;12.04;100.00;99159.75;5092055;28;20375;-63
2022/04/25 00:29:09;;;;;;;12.75;7.72;;;;;;;12.05;100.00;99156.13;5091787;28;20433;-63
2022/04/25 00:31:35;;;;;;;9.63;5.70;;;;;;;12.03;100.00;99158.03;5091615;28;20498;-63
2022/04/25 00:34:00;;;;;;;86.95;57.47;;;;;;;12.01;100.00;99159.91;5091816;28;20360;-63
2022/04/25 00:36:25;;;;;;;26.15;20.35;;;;;;;11.96;100.00;99161.94;5091692;28;20027;-63
2022/04/25 00:38:51;;;;;;;23.88;16.48;;;;;;;11.95;100.00;99160.22;5091614;28;20102;-63
2022/04/25 00:41:16;;;;;;;12.00;8.43;;;;;;;11.89;100.00;99166.72;5091580;28;20024;-63
2022/04/25 00:43:42;;;;;;;7.75;4.60;;;;;;;11.86;100.00;99166.03;5091719;28;20035;-65
2022/04/25 00:46:20;;;;;;;6.63;4.28;;;;;;;11.80;100.00;99158.34;5091449;28;20024;-64
2022/04/25 00:48:46;;;;;;;7.13;4.72;;;;;;;11.73;100.00;99164.91;5091765;28;20012;-63
2022/04/25 00:51:12;;;;;;;7.35;4.55;;;;;;;11.73;100.00;99160.47;5085753;28;20020;-63
2022/04/25 00:53:37;;;;;;;6.70;4.10;;;;;;;11.69;100.00;99160.69;5082721;28;20016;-63
2022/04/25 00:56:03;;;;;;;8.93;6.20;;;;;;;11.64;100.00;99160.06;5090663;28;20107;-63
2022/04/25 00:58:29;;;;;;;6.50;4.30;;;;;;;11.56;100.00;99156.91;5091084;28;20028;-63
2022/04/25 01:00:54;;;;;;;7.53;4.38;;;;;;;11.54;100.00;99154.31;5091123;28;20028;-63
2022/04/25 01:03:20;;;;;;;7.38;4.43;;;;;;;11.47;100.00;99160.00;5091208;28;20023;-63
2022/04/25 01:05:45;;;;;;;7.75;4.70;;;;;;;11.43;100.00;99153.13;5089815;28;20085;-63
2022/04/25 01:08:10;;;;;;;5.85;4.25;;;;;;;11.39;100.00;99155.06;5090913;28;20024;-63
2022/04/25 01:10:36;;;;;;;8.05;4.47;;;;;;;11.35;100.00;99153.47;5091435;28;20028;-63
2022/04/25 01:13:01;;;;;;;6.90;4.38;;;;;;;11.28;100.00;99161.88;5091424;28;20642;-64
2022/04/25 01:15:28;;;;;;;6.03;3.60;;;;;;;11.21;100.00;99161.31;5091201;28;20059;-64
2022/04/25 01:17:54;;;;;;;5.93;3.78;;;;;;;11.27;100.00;99168.09;5082507;28;20074;-63
2022/04/25 01:20:19;;;;;;;5.53;3.65;;;;;;;11.24;100.00;99160.28;5075413;28;20036;-63
2022/04/25 01:27:15;;;;;;;6.40;3.80;;;;;;;11.12;100.00;99156.41;5073701;28;20052;-63
2022/04/25 01:28:26;;;;;;;5.45;3.55;;;;;;;11.00;100.00;99166.78;5071325;28;20494;-63
2022/04/25 01:30:52;;;;;;;5.13;3.38;;;;;;;10.92;100.00;99163.63;5070897;28;20104;-63
2022/04/25 01:33:17;;;;;;;6.70;3.85;;;;;;;10.86;100.00;99163.91;5071318;28;20025;-63
2022/04/25 01:35:42;;;;;;;6.43;4.00;;;;;;;10.83;100.00;99180.03;5070998;28;20024;-63
2022/04/25 01:38:08;;;;;;;7.13;4.15;;;;;;;10.80;100.00;99181.03;5071147;28;20760;-63
2022/04/25 01:40:33;;;;;;;6.10;3.63;;;;;;;10.81;100.00;99181.91;5070754;28;20032;-63
2022/04/25 01:42:58;;;;;;;6.75;4.13;;;;;;;10.75;100.00;99180.38;5070714;28;20081;-63
2022/04/25 01:45:24;;;;;;;6.10;4.05;;;;;;;10.72;100.00;99179.66;5068245;28;20103;-63
2022/04/25 01:47:49;;;;;;;6.18;4.53;;;;;;;10.78;100.00;99187.34;5051196;28;20036;-63
2022/04/25 01:50:15;;;;;;;5.38;3.65;;;;;;;10.84;100.00;99192.41;5054591;28;20021;-64
2022/04/25 01:52:40;;;;;;;7.53;4.55;;;;;;;10.91;100.00;99188.50;5071200;28;20112;-64
2022/04/25 01:55:06;;;;;;;6.80;4.43;;;;;;;10.95;100.00;99195.41;5070778;28;20446;-64
2022/04/25 01:57:31;;;;;;;5.95;4.43;;;;;;;10.98;100.00;99187.28;5070836;28;20031;-64
2022/04/25 01:59:57;;;;;;;6.45;4.60;;;;;;;10.98;100.00;99195.25;5071011;28;20068;-63
2022/04/25 02:02:23;;;;;;;6.30;4.13;;;;;;;10.95;100.00;99198.06;5070720;28;20392;-63
2022/04/25 02:04:49;;;;;;;7.50;4.43;;;;;;;10.90;100.00;99192.09;5071045;28;20386;-63
2022/04/25 02:07:14;;;;;;;8.35;4.90;;;;;;;10.92;100.00;99185.78;5071510;28;20548;-63
2022/04/25 02:09:40;;;;;;;6.75;4.75;;;;;;;10.90;100.00;99189.44;5074317;28;20108;-63
2022/04/25 02:12:06;;;;;;;7.97;4.78;;;;;;;10.84;100.00;99179.09;5074418;28;20035;-63
2022/04/25 02:14:32;;;;;;;6.03;4.20;;;;;;;10.81;100.00;99181.91;5072827;28;20081;-63
2022/04/25 02:17:01;;;;;;;5.85;3.88;;;;;;;10.78;100.00;99182.91;5072082;28;20024;-63
2022/04/25 02:19:28;;;;;;;6.20;3.58;;;;;;;10.73;100.00;99184.03;5072782;28;20020;-63
2022/04/25 02:21:54;;;;;;;6.50;4.22;;;;;;;10.66;100.00;99190.59;5075735;28;20071;-63
2022/04/25 02:24:20;;;;;;;8.55;4.78;;;;;;;10.68;100.00;99194.03;5093402;28;20059;-63
2022/04/25 02:26:46;;;;;;;7.05;5.03;;;;;;;10.72;100.00;99192.97;5094173;28;20039;-63
2022/04/25 02:29:11;;;;;;;8.07;4.78;;;;;;;10.73;100.00;99194.69;5094425;28;20619;-63
2022/04/25 02:31:36;;;;;;;7.25;4.97;;;;;;;10.76;100.00;99203.38;5094101;28;20391;-63
2022/04/25 02:34:02;;;;;;;8.00;5.22;;;;;;;10.82;100.00;99203.13;5094302;28;20502;-64
2022/04/25 02:36:27;;;;;;;8.98;5.53;;;;;;;10.97;100.00;99210.34;5094187;28;20039;-64
2022/04/25 02:38:53;;;;;;;9.52;5.93;;;;;;;11.07;100.00;99194.84;5093784;28;20024;-63
2022/04/25 02:41:18;;;;;;;8.43;5.78;;;;;;;11.17;100.00;99206.78;5093822;28;20052;-63
2022/04/25 02:43:44;;;;;;;11.55;6.38;;;;;;;11.20;100.00;99201.31;5093826;28;20031;-63
2022/04/25 02:46:13;;;;;;;10.88;6.78;;;;;;;11.30;100.00;99195.44;5093802;28;20864;-63
2022/04/25 02:48:41;;;;;;;10.63;6.82;;;;;;;11.36;100.00;99203.16;5090201;28;20447;-63
2022/04/25 02:51:08;;;;;;;10.07;5.63;;;;;;;11.38;100.00;99200.41;5084389;28;20407;-63
2022/04/25 02:53:35;;;;;;;8.52;5.93;;;;;;;11.39;100.00;99199.47;5091794;28;20126;-63
2022/04/25 02:56:02;;;;;;;9.70;6.00;;;;;;;11.43;100.00;99198.38;5091809;28;20100;-63
2022/04/25 02:58:29;;;;;;;12.45;7.18;;;;;;;11.48;100.00;99201.69;5091719;28;20045;-63
2022/04/25 03:00:55;;;;;;;10.32;6.03;;;;;;;11.43;100.00;99190.41;5088539;28;20115;-63
2022/04/25 03:03:21;;;;;;;11.95;7.28;;;;;;;11.45;100.00;99189.38;5071572;28;20479;-63
2022/04/25 03:05:49;;;;;;;12.68;7.07;;;;;;;11.42;100.00;99202.84;5072860;28;20020;-63
2022/04/25 03:08:20;;;;;;;12.00;6.20;;;;;;;11.26;100.00;99185.91;5073081;28;20361;-63
2022/04/25 03:10:47;;;;;;;13.57;7.22;;;;;;;11.38;100.00;99201.25;5073142;28;20424;-64
2022/04/25 03:13:14;;;;;;;10.60;6.82;;;;;;;11.39;100.00;99207.44;5073104;28;20020;-64
2022/04/25 03:15:39;;;;;;;14.48;7.55;;;;;;;11.38;100.00;99201.25;5073305;28;20107;-64
2022/04/25 03:18:13;;;;;;;13.18;7.80;;;;;;;11.40;100.00;99198.53;5072911;28;20099;-63
2022/04/25 03:20:41;;;;;;;12.95;7.82;;;;;;;11.42;100.00;99199.31;5079010;28;20535;-63
2022/04/25 03:23:07;;;;;;;16.63;10.32;;;;;;;11.47;100.00;99199.94;5073228;28;20043;-63
2022/04/25 03:25:33;;;;;;;18.75;9.95;;;;;;;11.52;100.00;99197.91;5069817;28;20021;-63
2022/04/25 03:27:59;;;;;;;12.70;7.65;;;;;;;11.54;100.00;99193.38;5072613;28;20031;-63
2022/04/25 03:30:25;;;;;;;12.10;7.32;;;;;;;11.49;100.00;99187.44;5073230;28;20029;-63
2022/04/25 03:32:51;;;;;;;10.57;6.57;;;;;;;11.41;100.00;99192.28;5072665;28;20035;-63
2022/04/25 03:35:18;;;;;;;11.35;6.72;;;;;;;11.36;100.00;99186.31;5072224;28;20400;-63
2022/04/25 03:37:45;;;;;;;12.25;6.82;;;;;;;11.38;100.00;99200.41;5057928;28;20472;-63
2022/04/25 03:40:11;;;;;;;9.60;6.35;;;;;;;11.31;100.00;99210.50;5052774;28;20481;-63
2022/04/25 03:42:39;;;;;;;10.10;6.13;;;;;;;11.29;100.00;99206.16;5052790;28;20045;-63
2022/04/25 03:45:05;;;;;;;11.02;6.72;;;;;;;11.26;100.00;99207.19;5052780;28;20439;-63
2022/04/25 03:47:34;;;;;;;10.32;6.47;;;;;;;11.34;100.00;99197.03;5051989;28;20074;-63
2022/04/25 03:50:00;;;;;;;10.82;7.10;;;;;;;11.34;100.00;99214.81;5054033;28;20025;-63
2022/04/25 03:52:25;;;;;;;9.25;6.35;;;;;;;11.38;100.00;99205.75;5072323;28;20093;-63
2022/04/25 03:57:34;;;;;;;;;;;;;;;11.40;100.00;99206.53;5072860;28;20399;-63
2022/04/25 04:00:00;;;;;;;8.55;5.55;;;;;;;11.42;100.00;99207.28;5072203;28;19912;-63
2022/04/25 04:02:25;;;;;;;8.13;5.07;;;;;;;11.42;100.00;99207.28;5072016;28;20021;-63
2022/04/25 04:04:51;;;;;;;8.68;5.28;;;;;;;11.40;100.00;99209.19;5066569;28;20108;-63
2022/04/25 04:07:16;;;;;;;7.93;5.07;;;;;;;11.41;100.00;99209.13;5066002;28;20541;-63
2022/04/25 04:09:44;;;;;;;7.80;4.95;;;;;;;11.41;100.00;99210.91;5072547;28;20059;-63
2022/04/25 04:12:10;;;;;;;8.50;5.43;;;;;;;11.44;100.00;99216.09;5071981;28;20031;-63
2022/04/25 04:14:36;;;;;;;10.75;5.47;;;;;;;11.48;100.00;99218.50;5060205;28;20033;-63
2022/04/25 04:17:07;;;;;;;9.70;5.10;;;;;;;11.47;100.00;99219.47;5059115;28;20017;-63
2022/04/25 04:19:33;;;;;;;10.20;5.97;;;;;;;11.47;100.00;99218.59;5071947;28;20055;-63
2022/04/25 04:22:01;;;;;;;11.70;5.72;;;;;;;11.49;100.00;99224.72;5082556;28;20478;-63
2022/04/25 04:24:26;;;;;;;12.05;5.47;;;;;;;11.52;100.00;99220.09;5092301;28;20339;-63
2022/04/25 04:26:52;;;;;;;12.55;6.20;;;;;;;11.51;100.00;99218.38;5091910;28;20483;-63
2022/04/25 04:29:17;;;;;;;14.95;7.00;;;;;;;11.52;100.00;99219.22;5091849;28;20028;-63
2022/04/25 04:31:45;;;;;;;13.30;7.45;;;;;;;11.57;100.00;99226.06;5091144;28;20024;-63
2022/04/25 04:34:12;;;;;;;12.85;6.20;;;;;;;11.60;100.00;99222.38;5091716;28;20020;-63
2022/04/25 04:36:37;;;;;;;10.68;5.72;;;;;;;11.66;100.00;99228.28;5091941;28;20149;-63
2022/04/25 04:39:03;;;;;;;11.00;5.82;;;;;;;11.63;100.00;99224.91;5092248;28;20149;-63
2022/04/25 04:41:28;;;;;;;9.23;5.40;;;;;;;11.62;100.00;99216.06;5091870;28;20498;-63
2022/04/25 04:43:57;;;;;;;8.27;5.45;;;;;;;11.64;100.00;99221.34;5091570;28;20020;-63
2022/04/25 04:46:26;;;;;;;8.38;5.18;;;;;;;11.61;100.00;99224.13;5091902;28;20024;-63
2022/04/25 04:48:51;;;;;;;8.52;5.53;;;;;;;11.54;100.00;99218.22;5091824;28;20072;-63
2022/04/25 04:51:17;;;;;;;7.55;5.00;;;;;;;11.50;100.00;99218.44;5091457;28;20522;-63
2022/04/25 04:53:42;;;;;;;8.05;5.68;;;;;;;11.55;100.00;99214.63;5091533;28;20051;-63
2022/04/25 04:56:08;;;;;;;8.32;5.20;;;;;;;11.55;100.00;99209.28;5089044;28;20023;-63
2022/04/25 04:58:34;;;;;;;8.65;5.22;;;;;;;11.53;100.00;99221.81;5083492;28;20395;-63
2022/04/25 05:00:59;;;;;;;7.82;4.93;;;;;;;11.53;100.00;99226.31;5091661;28;20030;-63
2022/04/25 05:03:25;;;;;;;9.50;5.10;;;;;;;11.54;100.00;99225.34;5091553;28;20127;-63
2022/04/25 05:05:54;;;;;;;10.10;6.13;;;;;;;11.52;100.00;99232.53;5091675;28;20386;-63
2022/04/25 05:08:20;;;;;;;9.10;5.70;;;;;;;11.54;100.00;99228.00;5091612;28;20027;-63
2022/04/25 05:10:47;;;;;;;11.85;6.40;;;;;;;11.60;100.00;99235.69;5077713;28;20036;-63
2022/04/25 05:13:15;;;;;;;12.65;7.57;;;;;;;11.65;100.00;99242.56;5070174;28;20348;-63
2022/04/25 05:15:41;;;;;;;13.02;8.10;;;;;;;11.66;100.00;99238.09;5071487;28;20029;-63
2022/04/25 05:18:06;;;;;;;9.77;6.57;;;;;;;11.66;100.00;99238.94;5087803;28;20375;-63
2022/04/25 05:20:32;;;;;;;14.15;7.93;;;;;;;11.69;100.00;99245.94;5091427;28;20032;-63
2022/04/25 05:22:57;;;;;;;16.88;8.50;;;;;;;11.68;100.00;99246.84;5091141;28;20044;-63
2022/04/25 05:25:24;;;;;;;21.65;9.95;;;;;;;11.73;100.00;99240.38;5091432;28;20050;-63
2022/04/25 05:27:56;;;;;;;15.88;9.43;;;;;;;11.77;100.00;99251.75;5091196;28;20103;-63
2022/04/25 05:30:23;;;;;;;20.70;9.65;;;;;;;11.79;100.00;99247.22;5091704;28;20024;-63
2022/04/25 05:32:53;;;;;;;14.45;8.30;;;;;;;11.84;100.00;99247.84;5091243;28;20038;-63
2022/04/25 05:35:24;;;;;;;15.48;8.10;;;;;;;11.89;100.00;99252.00;5077822;28;20052;-63
2022/04/25 05:37:49;;;;;;;14.38;7.65;;;;;;;11.89;100.00;99245.81;5070896;28;20540;-63
2022/04/25 05:40:19;;;;;;;12.52;7.22;;;;;;;11.90;100.00;99243.06;5078809;28;20030;-63
2022/04/25 05:42:46;;;;;;;11.13;6.53;;;;;;;12.03;100.00;99255.75;5092887;28;20528;-63
2022/04/25 05:45:14;;;;;;;12.02;6.40;;;;;;;12.08;100.00;99251.94;5095363;28;20032;-63
2022/04/25 05:47:40;;;;;;;14.20;6.93;;;;;;;12.20;100.00;99250.44;5095167;28;20019;-63
2022/04/25 05:52:52;;;;;;;12.40;7.00;;;;;;;12.36;100.00;99262.91;5095354;28;20220;-63
2022/04/25 05:55:19;;;;;;;17.52;7.47;;;;;;;12.55;100.00;99265.50;5095426;28;20028;-63
2022/04/25 05:57:44;;;;;;;13.15;6.88;;;;;;;12.61;100.00;99268.69;5094856;28;20034;-63
2022/04/25 06:00:12;;;;;;;14.93;7.55;;;;;;;12.80;100.00;99271.28;5094721;28;20421;-63
2022/04/25 06:02:42;;;;;;;16.20;7.82;;;;;;;13.00;100.00;99266.56;5094685;28;20077;-63
2022/04/25 06:05:10;;;;;;;14.38;8.10;;;;;;;13.02;100.00;99270.06;5094563;28;20048;-63
2022/04/25 06:07:36;;;;;;;14.48;7.38;;;;;;;13.13;100.00;99270.31;5078141;28;20382;-63
2022/04/25 06:10:04;;;;;;;11.43;7.43;;;;;;;13.17;100.00;99263.00;5074236;28;20103;-63
2022/04/25 06:12:29;;;;;;;15.77;8.98;;;;;;;13.11;100.00;99258.84;5074214;28;20039;-63
2022/04/25 06:14:56;;;;;;;23.17;9.00;;;;;;;13.06;100.00;99257.41;5090832;28;20020;-63
2022/04/25 06:17:21;;;;;;;15.82;7.78;;;;;;;13.01;100.00;99273.66;5094933;28;20085;-63
2022/04/25 06:19:47;;;;;;;12.27;5.68;;;;;;;12.97;100.00;99266.75;5094138;28;20028;-63
2022/04/25 06:22:12;;;;;;;11.90;6.18;;;;;;;13.00;100.00;99271.91;5081287;28;20131;-63
2022/04/25 06:24:38;;;;;;;9.45;5.50;;;;;;;13.09;100.00;99283.94;5074226;28;20386;-63
2022/04/25 06:27:05;;;;;;;9.15;5.10;;;;;;;13.12;100.00;99278.41;5074330;28;20535;-63
2022/04/25 06:29:31;;;;;;;9.88;5.57;;;;;;;13.18;100.00;99276.28;5074075;28;20081;-63
2022/04/25 06:31:57;;;;;;;9.82;5.22;;;;;;;13.18;100.00;99278.94;5073944;28;20026;-63
2022/04/25 06:34:24;;;;;;;9.48;5.50;;;;;;;13.11;100.00;99266.88;5073937;28;20462;-63
2022/04/25 06:36:50;;;;;;;10.00;5.45;;;;;;;13.21;100.00;99294.78;5074146;28;20031;-63
2022/04/25 06:39:19;;;;;;;13.38;6.85;;;;;;;13.24;100.00;99294.63;5074074;28;20036;-63
2022/04/25 06:41:44;;;;;;;10.75;5.85;;;;;;;13.21;100.00;99302.81;5073530;28;20035;-63
2022/04/25 06:44:09;;;;;;;11.43;5.82;;;;;;;13.23;100.00;99304.56;5073789;28;20495;-63
2022/04/25 06:46:35;;;;;;;10.68;5.65;;;;;;;13.28;100.00;99305.16;5073605;28;20479;-63
2022/04/25 06:49:23;;;;;;;11.98;6.38;;;;;;;13.36;100.00;99297.59;5067868;28;20468;-62
2022/04/25 06:51:51;;;;;;;9.57;5.75;;;;;;;13.68;100.00;99300.19;5068935;28;20144;-63
2022/04/25 06:54:17;;;;;;;11.18;6.00;;;;;;;14.06;100.00;99301.53;5072543;28;20028;-63
2022/04/25 06:56:42;;;;;;;12.27;6.78;;;;;;;14.47;100.00;99304.47;5073525;28;20030;-63
2022/04/25 06:59:08;;;;;;;12.18;6.05;;;;;;;14.84;100.00;99301.31;5072996;28;20021;-63
2022/04/25 07:01:33;;;;;;;12.57;6.63;;;;;;;15.31;100.00;99301.91;5071216;28;20082;-63
2022/04/25 07:03:59;;;;;;;12.60;7.28;;;;;;;15.46;100.00;99306.31;5053388;28;20027;-63
2022/04/25 07:06:25;;;;;;;12.75;6.57;;;;;;;15.51;100.00;99301.53;5053183;28;20024;-63
2022/04/25 07:08:52;;;;;;;11.70;6.63;;;;;;;15.20;100.00;99293.69;5053133;28;20043;-63
2022/04/25 07:11:17;;;;;;;13.13;6.82;;;;;;;14.96;100.00;99307.72;5053508;28;20021;-63
2022/04/25 07:13:44;;;;;;;11.60;6.82;;;;;;;14.84;100.00;99308.47;5053347;28;20039;-63
2022/04/25 07:16:09;;;;;;;12.77;7.05;;;;;;;14.64;100.00;99315.03;5052966;28;20025;-63
2022/04/25 07:18:36;;;;;;;11.63;6.78;;;;;;;14.48;100.00;99315.09;5052992;28;20033;-63
2022/04/25 07:28:48;;;;;;;13.65;8.40;;;;;;;14.35;100.00;99315.88;5062795;28;20040;-63
2022/04/25 07:29:14;;;;;;;12.10;7.03;;;;;;;13.82;100.00;99326.13;5072898;28;20506;-63
2022/04/25 07:31:40;;;;;;;14.27;6.57;;;;;;;13.73;100.00;99331.97;5069447;28;20059;-63
2022/04/25 07:34:05;;;;;;;13.52;6.63;;;;;;;13.61;100.00;99321.97;5073034;28;20125;-63
2022/04/25 07:36:31;;;;;;;12.70;6.60;;;;;;;13.56;100.00;99345.44;5070955;28;20096;-63
2022/04/25 07:38:56;;;;;;;11.85;6.80;;;;;;;13.45;100.00;99343.34;5059596;28;20490;-62
2022/04/25 07:41:21;;;;;;;10.88;6.35;;;;;;;13.31;100.00;99339.72;5052749;28;20025;-62
2022/04/25 07:43:48;;;;;;;15.10;6.78;;;;;;;13.08;100.00;99344.47;5052775;28;20025;-62
2022/04/25 07:46:16;;;;;;;14.23;7.32;;;;;;;12.98;100.00;99337.84;5052357;28;20421;-62
2022/04/25 07:48:42;;;;;;;11.00;6.35;;;;;;;12.98;100.00;99347.69;5052951;28;20465;-62
2022/04/25 07:51:07;;;;;;;9.68;5.22;;;;;;;12.96;100.00;99345.06;5063343;28;20028;-62
2022/04/25 07:53:33;;;;;;;9.00;4.40;;;;;;;12.80;100.00;99352.16;5072546;28;20021;-62
2022/04/25 07:55:58;;;;;;;9.27;3.28;;;;;;;12.71;100.00;99346.44;5072257;28;20020;-62
2022/04/25 07:58:24;;;;;;;5.65;3.17;;;;;;;12.61;100.00;99343.41;5072436;28;20391;-62
2022/04/25 08:00:49;;;;;;;6.05;3.08;;;;;;;12.56;100.00;99342.78;5072075;28;20036;-62
2022/04/25 08:03:15;;;;;;;5.95;2.35;;;;;;;12.47;100.00;99345.91;5072828;28;20027;-63
2022/04/25 08:05:40;;;;;;;5.32;2.65;;;;;;;12.36;100.00;99363.38;5071921;28;20111;-63
2022/04/25 08:08:06;;;;;;;5.47;2.60;;;;;;;12.31;100.00;99352.09;5072198;28;20028;-63
2022/04/25 08:10:31;;;;;;;3.88;2.00;;;;;;;12.48;100.00;99365.44;5069063;28;20031;-63
2022/04/25 08:18:25;;;;;;;3.03;1.73;;;;;;;12.91;100.00;99365.84;5071766;28;20032;-63
2022/04/25 08:20:50;;;;;;;3.60;2.00;;;;;;;13.12;100.00;99371.88;5072993;28;20028;-63
2022/04/25 08:23:16;;;;;;;3.55;2.40;;;;;;;13.29;100.00;99363.84;5092300;28;20036;-63
2022/04/25 08:25:42;;;;;;;3.35;1.80;;;;;;;13.40;100.00;99363.25;5091956;28;20046;-63
2022/04/25 08:28:09;;;;;;;4.18;2.42;;;;;;;13.63;100.00;99360.16;5091994;28;20081;-63
2022/04/25 08:30:35;;;;;;;3.90;2.22;;;;;;;13.93;100.00;99370.03;5092173;28;20043;-63
2022/04/25 08:33:01;;;;;;;3.83;2.00;;;;;;;14.00;100.00;99357.19;5091897;28;20059;-63
2022/04/25 08:35:27;;;;;;;4.65;2.58;;;;;;;14.04;100.00;99364.94;5091887;28;20028;-63
2022/04/25 08:37:54;;;;;;;3.15;2.10;;;;;;;14.02;100.00;99369.50;5091793;28;20028;-63
2022/04/25 08:40:21;;;;;;;5.07;2.78;;;;;;;14.49;100.00;99367.66;5086228;28;20353;-63
2022/04/25 08:42:46;;;;;;;5.53;2.75;;;;;;;14.90;99.84;99362.50;5052638;28;20028;-63
2022/04/25 08:45:13;;;;;;;7.60;2.78;;;;;;;15.11;96.56;99355.84;5070138;28;20548;-63
2022/04/25 08:47:49;;;;;;;4.20;2.10;;;;;;;15.09;97.47;99352.41;5071771;28;20039;-63
2022/04/25 08:50:18;;;;;;;4.68;2.20;;;;;;;15.00;94.48;99350.28;5075219;28;20042;-63
2022/04/25 08:52:43;;;;;;;5.82;2.50;;;;;;;14.83;96.02;99349.56;5091163;28;20233;-63
2022/04/25 08:55:10;;;;;;;2.95;1.90;;;;;;;14.61;92.64;99352.69;5089838;28;20043;-64
2022/04/25 08:57:36;;;;;;;1.80;1.33;;;;;;;14.11;91.96;99344.03;5086989;28;20028;-63
2022/04/25 09:00:04;;;;;;;3.00;1.77;;;;;;;13.99;96.54;99356.31;5090177;28;20020;-63
2022/04/25 09:02:30;;;;;;;3.50;1.75;;;;;;;14.05;96.69;99341.72;5090213;28;20107;-63
2022/04/25 09:04:56;;;;;;;3.70;1.88;;;;;;;14.03;93.09;99357.00;5090149;28;20687;-63
2022/04/25 09:07:23;;;;;;;2.50;1.63;;;;;;;13.97;91.68;99358.19;5090560;28;20036;-63
2022/04/25 09:09:49;;;;;;;3.30;1.80;;;;;;;14.23;95.25;99357.56;5091586;28;20526;-63
2022/04/25 09:12:15;;;;;;;3.15;1.70;;;;;;;14.21;95.71;99363.97;5091403;28;20052;-63
2022/04/25 09:14:42;;;;;;;2.92;1.60;;;;;;;14.37;95.04;99375.53;5091993;28;20102;-63
2022/04/25 09:17:08;;;;;;;3.55;1.67;;;;;;;14.62;95.80;99366.91;5091980;28;20047;-63
2022/04/25 09:19:36;;;;;;;6.20;2.05;;;;;;;14.70;92.52;99372.69;5095746;28;20078;-63
2022/04/25 09:22:01;;;;;;;4.18;2.05;;;;;;;14.58;90.81;99376.09;5092763;28;20385;-63
2022/04/25 09:24:35;;;;;;;4.72;2.40;;;;;;;14.48;91.84;99387.34;5075254;28;20031;-64
2022/04/25 09:27:07;;;;;;;3.95;2.38;;;;;;;14.46;93.02;99388.38;5075311;28;20048;-64
2022/04/25 09:29:33;;;;;;;5.00;2.50;;;;;;;14.44;94.45;99383.13;5090498;28;20501;-63
2022/04/25 09:31:59;;;;;;;4.75;2.60;;;;;;;14.31;93.07;99383.94;5074640;28;20422;-63
2022/04/25 09:37:08;;;;;;;5.07;2.50;;;;;;;14.40;95.27;99389.59;5075048;28;20078;-63
2022/04/25 09:39:35;;;;;;;5.50;2.45;;;;;;;14.37;93.66;99394.25;5074985;28;20468;-63
2022/04/25 09:42:00;;;;;;;3.33;2.25;;;;;;;14.42;92.87;99409.09;5074787;28;20053;-64
2022/04/25 09:44:28;;;;;;;4.35;2.08;;;;;;;14.54;93.93;99407.53;5074967;28;20749;-65
2022/04/25 09:46:54;;;;;;;4.18;2.38;;;;;;;14.71;95.64;99411.91;5074622;28;20028;-64
2022/04/25 09:49:22;;;;;;;4.78;2.85;;;;;;;14.89;96.63;99419.69;5074690;28;20070;-64
2022/04/25 09:52:03;;;;;;;6.72;2.50;;;;;;;15.07;96.85;99413.25;5091193;28;20019;-65
2022/04/25 09:54:29;;;;;;;3.53;2.20;;;;;;;15.30;95.66;99419.91;5095162;28;20028;-65
2022/04/25 09:56:55;;;;;;;3.97;2.10;;;;;;;15.67;94.18;99414.88;5095077;28;20074;-65
2022/04/25 09:59:21;;;;;;;3.97;2.25;;;;;;;15.94;92.51;99420.31;5095070;28;20111;-65
2022/04/25 10:02:04;;;;;;;3.70;2.28;;;;;;;16.43;88.01;99416.16;5094428;28;20495;-65
2022/04/25 10:04:38;;;;;;;4.07;2.20;;;;;;;17.00;85.87;99411.44;5079173;28;20024;-65
2022/04/25 10:07:06;;;;;;;4.22;2.28;;;;;;;17.77;83.94;99412.25;5074266;28;20029;-65
2022/04/25 10:09:34;;;;;;;3.58;2.25;;;;;;;18.62;78.41;99414.94;5074335;28;20020;-65
2022/04/25 10:12:02;;;;;;;4.40;2.10;;;;;;;19.38;70.35;99415.38;5074120;28;20048;-65
2022/04/25 10:14:28;;;;;;;3.00;1.70;;;;;;;19.68;63.70;99418.38;5073758;28;20103;-65
2022/04/25 10:16:59;;;;;;;3.13;1.77;;;;;;;19.60;61.55;99420.81;5074706;28;20527;-65
2022/04/25 10:19:28;;;;;;;3.13;1.80;;;;;;;19.79;60.88;99420.19;5092990;28;20324;-65
2022/04/25 10:21:55;;;;;;;3.33;1.70;;;;;;;19.77;61.31;99423.03;5083784;28;20466;-65
2022/04/25 10:24:21;;;;;;;4.13;2.13;;;;;;;20.34;62.72;99418.38;5074347;28;20510;-65
2022/04/25 10:26:48;;;;;;;2.97;1.73;;;;;;;20.65;61.67;99409.47;5073961;28;20059;-65
2022/04/25 10:29:34;;;;;;;5.13;2.15;;;;;;;21.44;58.35;99424.34;5073939;28;20020;-65
2022/04/25 10:32:01;;;;;;;3.13;1.73;;;;;;;22.07;57.29;99421.47;5073667;28;20024;-65
2022/04/25 10:34:47;;;;;;;3.22;1.70;;;;;;;22.88;52.94;99422.09;5059226;28;20028;-65
2022/04/25 10:37:41;;;;;;;2.58;1.77;;;;;;;22.20;52.20;99424.78;5052617;28;20017;-65
2022/04/25 10:40:12;;;;;;;4.10;2.10;;;;;;;22.32;51.73;99430.97;5051139;28;20076;-65
2022/04/25 10:45:56;;;;;;;2.55;1.38;;;;;;;22.80;50.41;99421.13;5053314;28;20120;-65
2022/04/25 10:48:22;;;;;;;2.90;1.55;;;;;;;22.93;50.96;99427.13;5053819;28;20485;-65
2022/04/25 10:51:10;;;;;;;3.28;1.83;;;;;;;22.90;47.73;99428.25;5061803;28;20044;-65
2022/04/25 10:54:02;;;;;;;2.80;1.17;;;;;;;23.19;44.43;99428.28;5073402;28;20032;-65
2022/04/25 10:56:29;;;;;;;4.85;1.83;;;;;;;23.59;46.97;99426.25;5073392;28;20055;-65
2022/04/25 10:59:22;;;;;;;3.08;1.55;;;;;;;23.59;44.78;99430.84;5072200;28;20108;-65
2022/04/25 11:01:49;;;;;;;2.25;1.40;;;;;;;23.12;44.20;99425.28;5072179;28;20066;-65
2022/04/25 11:04:15;;;;;;;2.58;1.77;;;;;;;22.85;46.19;99441.38;5063908;28;20490;-65
2022/04/25 11:06:41;;;;;;;3.80;1.80;;;;;;;22.47;46.38;99435.84;5052914;28;20119;-65
2022/04/25 11:09:06;;;;;;;2.35;1.63;;;;;;;23.12;48.36;99433.41;5053581;28;20492;-65
2022/04/25 11:11:53;;;;;;;3.10;1.60;;;;;;;23.52;46.31;99441.41;5053210;28;20029;-65
2022/04/25 11:14:19;;;;;;;3.80;1.60;;;;;;;23.88;47.19;99437.91;5053268;28;20436;-65
2022/04/25 11:17:07;;;;;;;2.70;1.20;;;;;;;23.93;44.66;99437.47;5055382;28;20075;-66
2022/04/25 11:19:51;;;;;;;2.85;1.83;;;;;;;24.32;46.97;99439.03;5053108;28;20032;-65
2022/04/25 11:22:37;;;;;;;3.42;1.58;;;;;;;24.71;46.85;99440.59;5086102;28;20048;-65
2022/04/25 11:25:35;;;;;;;2.58;1.35;;;;;;;24.49;44.57;99435.53;5093131;28;20028;-65
2022/04/25 11:28:19;;;;;;;3.05;1.85;;;;;;;24.16;45.25;99441.56;5058274;28;20040;-65
2022/04/25 11:30:44;;;;;;;3.58;2.08;;;;;;;23.97;42.72;99441.59;5093415;28;20020;-65
2022/04/25 11:33:12;;;;;;;3.40;1.92;;;;;;;24.06;45.03;99429.84;5092304;28;20050;-65
2022/04/25 11:35:39;;;;;;;3.33;1.90;;;;;;;24.45;44.56;99434.97;5090024;28;20031;-65
2022/04/25 11:38:05;;;;;;;2.95;2.00;;;;;;;24.06;41.08;99427.16;5073090;28;20031;-65
2022/04/25 11:40:31;;;;;;;10.50;3.38;;;;;;;23.94;45.83;99428.28;5071791;28;20064;-65
2022/04/25 11:42:59;;;;;;;3.85;2.15;;;;;;;24.35;43.62;99430.56;5072479;28;20426;-65
2022/04/25 11:45:25;;;;;;;3.40;2.17;;;;;;;24.45;44.50;99436.81;5072971;28;20504;-66
2022/04/25 11:47:50;;;;;;;5.03;2.65;;;;;;;24.99;45.38;99420.47;5072272;28;20159;-66
2022/04/25 11:50:23;;;;;;;4.28;2.22;;;;;;;25.19;43.64;99422.00;5076477;28;20135;-66